»·PEaware :: N261MG KBZN-KGEG

N261MG :: KBZN-KGEG

FLIGHT INFORMATION

Flight Status: Arrived
Operator: Privately registered:
United States
More flights under this callsign
Pilot: Marty O. (15602)
Aircraft: ECLIPSE 500
(EA50)
More flights by this aircraft type
Origin: KBZN Gallatin
United States
Destination: KGEG Spokane Intl
United States
More flights between these airports :: More routes between these airports
Route: HIA5 HIA MILP HILIE2
File this flight plan on PilotEdge
Remarks:
Altitude:
(Current/Filed)
38,000ft
Speed:
(Current/Filed)
360kts
Departed: 18-Sep-20 07:31 PM
Arrived: 18-Sep-20 08:57 PM
Distance/Time
Traveled:
285nm/1:25
Distance/Time
To Go:
Arrived

Flight Plot

Page will automatically refresh every two minutes.

Flight plan parsing failed; only flown route is shown


Map Options




Map Legend


Flown Route
Filed Route
Departure Airport
Arrival Airport
Navaid (VOR, NDB)
Fix

Horizontal Profiles

Position Reports

Time Latitude Longitude Heading Altitude Ground
Speed
18-Sep-20 19:11 45.772870 -111.152008 318 4474ft 0kts
18-Sep-20 19:12 45.772870 -111.152008 318 4474ft 0kts
18-Sep-20 19:13 45.772870 -111.152008 318 4474ft 0kts
18-Sep-20 19:14 45.772870 -111.152008 318 4474ft 0kts
18-Sep-20 19:15 45.772870 -111.152008 318 4474ft 0kts
18-Sep-20 19:16 45.772870 -111.152007 318 4474ft 0kts
18-Sep-20 19:17 45.772870 -111.152007 318 4474ft 0kts
18-Sep-20 19:18 45.772870 -111.152007 318 4474ft 0kts
18-Sep-20 19:19 45.772870 -111.152007 318 4474ft 0kts
18-Sep-20 19:20 45.772870 -111.152007 318 4474ft 0kts
18-Sep-20 19:21 45.773793 -111.152641 348 4474ft 3kts
18-Sep-20 19:22 45.774592 -111.152779 356 4474ft 3kts
18-Sep-20 19:23 45.777407 -111.155787 316 4474ft 19kts
18-Sep-20 19:24 45.781382 -111.161307 315 4474ft 19kts
18-Sep-20 19:25 45.785278 -111.166735 315 4474ft 14kts
18-Sep-20 19:26 45.786678 -111.168265 19 4474ft 1kts
18-Sep-20 19:27 45.787093 -111.167766 45 4474ft 0kts
18-Sep-20 19:28 45.787128 -111.167715 45 4474ft 0kts
18-Sep-20 19:29 45.787348 -111.167388 46 4474ft 6kts
18-Sep-20 19:30 45.784709 -111.161899 138 4474ft 80kts
18-Sep-20 19:31 45.750611 -111.153977 240 5072ft 206kts
18-Sep-20 19:32 45.748548 -111.230159 265 7906ft 187kts
18-Sep-20 19:33 45.727022 -111.296612 239 10116ft 182kts
18-Sep-20 19:34 45.703230 -111.362388 238 12653ft 178kts
18-Sep-20 19:35 45.680076 -111.426229 238 14995ft 180kts
18-Sep-20 19:36 45.653838 -111.496780 238 16027ft 238kts
18-Sep-20 19:42 45.772870 -111.152007 318 4474ft 0kts
18-Sep-20 19:43 45.772870 -111.152007 318 4474ft 0kts
18-Sep-20 19:44 45.772905 -111.152053 318 4474ft 0kts
18-Sep-20 19:45 45.774251 -111.153112 341 4474ft 14kts
18-Sep-20 19:46 45.777402 -111.155817 316 4474ft 26kts
18-Sep-20 19:47 45.781967 -111.162133 315 4474ft 22kts
18-Sep-20 19:48 45.785059 -111.166434 315 4474ft 3kts
18-Sep-20 19:49 45.786564 -111.168291 357 4474ft 4kts
18-Sep-20 19:50 45.787647 -111.166682 60 4474ft 17kts
18-Sep-20 19:51 45.774400 -111.146849 133 4873ft 129kts
18-Sep-20 19:52 45.749526 -111.173808 266 7133ft 183kts
18-Sep-20 19:53 45.745217 -111.247480 238 10049ft 182kts
18-Sep-20 19:54 45.721497 -111.312513 238 12749ft 184kts
18-Sep-20 19:55 45.696750 -111.379306 237 15190ft 189kts
18-Sep-20 19:56 45.667349 -111.456042 237 16013ft 259kts
18-Sep-20 19:57 45.680903 -111.567735 298 16033ft 347kts
18-Sep-20 19:58 45.726572 -111.696235 288 16201ft 348kts
18-Sep-20 19:59 45.762193 -111.817195 287 16120ft 319kts
18-Sep-20 20:00 45.790461 -111.915576 283 20330ft 224kts
18-Sep-20 20:01 45.812884 -111.994901 281 22886ft 190kts
18-Sep-20 20:02 45.832976 -112.066595 281 24534ft 190kts
18-Sep-20 20:03 45.852793 -112.137368 280 25974ft 193kts
18-Sep-20 20:04 45.880724 -112.206846 293 27296ft 206kts
18-Sep-20 20:05 45.913404 -112.275039 293 28555ft 210kts
18-Sep-20 20:06 45.947141 -112.344894 293 29733ft 214kts
18-Sep-20 20:07 45.982953 -112.418958 293 30891ft 217kts
18-Sep-20 20:08 46.019072 -112.493768 293 31963ft 221kts
18-Sep-20 20:09 46.055418 -112.569388 294 32943ft 225kts
18-Sep-20 20:10 46.093405 -112.648311 294 33986ft 224kts
18-Sep-20 20:11 46.129391 -112.723395 293 34887ft 224kts
18-Sep-20 20:12 46.165678 -112.799370 293 35671ft 226kts
18-Sep-20 20:13 46.203569 -112.878794 293 36407ft 230kts
18-Sep-20 20:14 46.241363 -112.958310 291 37016ft 237kts
18-Sep-20 20:15 46.280749 -113.041411 291 37616ft 243kts
18-Sep-20 20:16 46.320255 -113.125188 291 38084ft 247kts
18-Sep-20 20:17 46.359516 -113.208545 291 38089ft 245kts
18-Sep-20 20:18 46.399326 -113.293501 291 38086ft 261kts
18-Sep-20 20:19 46.443177 -113.387285 293 38021ft 293kts
18-Sep-20 20:20 46.491661 -113.491205 294 37967ft 320kts
18-Sep-20 20:21 46.543480 -113.602668 295 37953ft 339kts
18-Sep-20 20:22 46.598553 -113.721633 294 37959ft 355kts
18-Sep-20 20:23 46.655989 -113.846275 294 37956ft 367kts
18-Sep-20 20:24 46.714945 -113.974841 295 37956ft 377kts
18-Sep-20 20:25 46.773935 -114.104043 295 37959ft 383kts
18-Sep-20 20:26 46.834174 -114.236634 295 37957ft 388kts
18-Sep-20 20:27 46.894992 -114.371160 295 37956ft 391kts
18-Sep-20 20:28 46.956081 -114.507011 295 37554ft 402kts
18-Sep-20 20:29 47.020864 -114.651745 295 35616ft 419kts
18-Sep-20 20:30 47.087581 -114.801507 295 33648ft 422kts
18-Sep-20 20:31 47.154204 -114.952041 296 31644ft 427kts
18-Sep-20 20:33 47.220463 -115.102439 296 29603ft 430kts
18-Sep-20 20:34 47.285698 -115.251349 297 27533ft 419kts
18-Sep-20 20:35 47.348250 -115.394926 297 25492ft 407kts
18-Sep-20 20:36 47.408514 -115.533937 298 23518ft 393kts
18-Sep-20 20:37 47.458149 -115.673876 271 21668ft 367kts
18-Sep-20 20:38 47.468063 -115.825902 271 19817ft 357kts
18-Sep-20 20:39 47.477118 -115.973483 271 18122ft 349kts
18-Sep-20 20:40 47.485787 -116.118480 271 16793ft 343kts
18-Sep-20 20:41 47.492453 -116.259501 271 15475ft 336kts
18-Sep-20 20:42 47.500256 -116.399159 273 14144ft 331kts
18-Sep-20 20:43 47.508678 -116.537552 273 12802ft 326kts
18-Sep-20 20:44 47.517171 -116.674119 273 11983ft 321kts
18-Sep-20 20:45 47.524165 -116.806004 272 10505ft 293kts
18-Sep-20 20:46 47.530536 -116.929900 272 8962ft 293kts
18-Sep-20 20:47 47.558676 -117.035990 314 7469ft 292kts
18-Sep-20 20:48 47.608347 -117.114890 314 6986ft 236kts
18-Sep-20 20:49 47.650992 -117.184406 314 6094ft 229kts
18-Sep-20 20:50 47.691760 -117.251524 314 5123ft 222kts
18-Sep-20 20:51 47.730709 -117.315741 313 4157ft 179kts
18-Sep-20 20:51 47.728340 -117.367956 254 3979ft 136kts
18-Sep-20 20:53 47.699858 -117.414803 225 3987ft 135kts
18-Sep-20 20:54 47.672968 -117.455382 226 3575ft 132kts
18-Sep-20 20:54 47.650165 -117.489449 226 2967ft 132kts
18-Sep-20 20:55 47.626461 -117.525502 226 2387ft 80kts
18-Sep-20 20:56 47.621367 -117.532690 177 2387ft 0kts
18-Sep-20 20:58 47.620774 -117.530557 45 2387ft 6kts
18-Sep-20 20:58 47.621232 -117.528930 132 2387ft 4kts
18-Sep-20 20:59 47.620728 -117.528186 141 2387ft 0kts
18-Sep-20 21:00 47.620683 -117.528131 141 2387ft 0kts
18-Sep-20 21:01 47.620638 -117.528077 141 2387ft 0kts
18-Sep-20 21:02 47.620592 -117.528023 141 2387ft 0kts

Navigation Log

Ident Type
Flight plan parsing failed, navigation log unavailable